Amory, Mississippi
Current Conditions -  °F | °C
As of 2:15 PM on Sunday 21 Dec 2014 (Local Time) from KM40 Reporting Station
Overcast Overcast  
Wind Chill: 55°   Ceiling: 2700
Heat Index: 55°   Visibility: 8mi
Dew Point: 39°   Wind: 3mph
Humidity: 54%   Direction: 10°N
Pressure: 30.08"   Gusts: NA
Location:  33.99°N, 88.49°W
Report Text: KM40 212015Z AUTO 01003KT 8SM OVC027 13/04 A3008 RMK AO2
Loading
Personal Weather Stations






























Interactive Weather Map New forecast layout! Learn more

10-Day Weather Forecast

Advertisements
Track Severe Weather on mobile